Time;durP1;ratioP1;P1;durP2;ratioP2;P2;SDS_P1;SDS_P2;PMS_P1;PMS_P2;Temp;Humidity;BMP_temperature;BMP_pressure;BME280_temperature;BME280_humidity;BME280_pressure;Samples;Min_cycle;Max_cycle;Signal;HPM_P1;HPM_P2
2024/03/07 00:01:15;;;;;;;9.15;4.90;;;;;;;5.96;100.00;98463.00;4965661;28;20035;-67
2024/03/07 00:03:41;;;;;;;7.78;4.22;;;;;;;5.89;100.00;98464.38;4960158;28;20154;-66
2024/03/07 00:06:08;;;;;;;7.97;4.38;;;;;;;6.13;100.00;98502.97;4965716;28;20501;-68
2024/03/07 00:08:34;;;;;;;9.40;4.38;;;;;;;6.09;100.00;98499.00;4961809;28;20043;-67
2024/03/07 00:11:02;;;;;;;8.77;4.78;;;;;;;6.13;100.00;98511.56;4951441;28;20031;-66
2024/03/07 00:13:30;;;;;;;10.57;4.18;;;;;;;6.13;100.00;98503.81;4949536;28;20038;-66
2024/03/07 00:15:56;;;;;;;10.35;4.50;;;;;;;6.01;100.00;98503.94;4947543;28;20035;-67
2024/03/07 00:18:21;;;;;;;8.98;4.13;;;;;;;6.03;100.00;98504.66;4977242;28;20101;-67
2024/03/07 00:20:52;;;;;;;9.60;4.32;;;;;;;5.80;100.00;98468.47;4949617;28;20673;-67
2024/03/07 00:23:17;;;;;;;7.15;4.25;;;;;;;5.88;100.00;98494.53;4977113;28;20081;-67
2024/03/07 00:25:43;;;;;;;7.95;3.88;;;;;;;5.86;100.00;98495.56;4960295;28;20133;-66
2024/03/07 00:28:08;;;;;;;9.20;4.32;;;;;;;6.01;100.00;98499.59;4943942;28;20054;-68
2024/03/07 00:30:33;;;;;;;8.63;4.45;;;;;;;5.80;100.00;98499.44;4972243;28;20042;-65
2024/03/07 00:32:59;;;;;;;10.40;4.75;;;;;;;5.57;100.00;98457.34;4975492;28;20042;-66
2024/03/07 00:35:25;;;;;;;8.30;4.28;;;;;;;5.87;100.00;98495.47;4944733;28;20038;-67
2024/03/07 00:37:50;;;;;;;7.95;4.43;;;;;;;5.83;100.00;98496.63;4963952;28;20050;-67
2024/03/07 00:40:15;;;;;;;10.07;4.53;;;;;;;5.89;100.00;98485.03;4965080;28;20050;-67
2024/03/07 00:42:46;;;;;;;8.70;4.45;;;;;;;5.86;100.00;98493.00;4952275;28;20542;-67
2024/03/07 00:45:11;;;;;;;8.88;4.70;;;;;;;6.05;100.00;98505.34;4973942;28;20061;-67
2024/03/07 00:47:41;;;;;;;8.48;4.75;;;;;;;6.12;100.00;98498.78;4969599;28;20031;-66
2024/03/07 00:50:08;;;;;;;8.30;3.90;;;;;;;6.17;100.00;98496.66;4954722;28;20041;-66
2024/03/07 00:52:36;;;;;;;8.43;4.30;;;;;;;6.21;100.00;98503.22;4958994;28;20536;-67
2024/03/07 00:55:04;;;;;;;9.43;4.25;;;;;;;6.25;100.00;98511.53;4963692;28;20048;-67
2024/03/07 00:57:30;;;;;;;9.32;4.30;;;;;;;6.26;100.00;98505.44;4944243;28;20039;-66
2024/03/07 00:59:56;;;;;;;8.75;4.15;;;;;;;5.93;100.00;98456.28;4952478;28;20038;-67
2024/03/07 01:02:22;;;;;;;7.47;4.03;;;;;;;6.23;100.00;98493.59;4943306;28;21030;-67
2024/03/07 01:04:50;;;;;;;9.93;4.15;;;;;;;6.14;100.00;98502.06;4956260;28;20379;-68
2024/03/07 01:07:17;;;;;;;8.82;4.03;;;;;;;6.12;100.00;98498.78;4970321;28;20121;-66
2024/03/07 01:09:43;;;;;;;9.15;3.58;;;;;;;5.93;100.00;98489.84;4963298;28;20065;-67
2024/03/07 01:12:11;;;;;;;7.75;3.70;;;;;;;5.93;100.00;98489.00;4960347;28;20696;-67
2024/03/07 01:14:36;;;;;;;6.78;3.80;;;;;;;5.91;100.00;98491.72;4935705;28;20875;-68
2024/03/07 01:17:01;;;;;;;8.57;3.65;;;;;;;5.90;100.00;98487.50;4967936;28;20043;-67
2024/03/07 01:19:32;;;;;;;9.45;4.05;;;;;;;5.98;100.00;98489.50;4969726;28;20130;-66
2024/03/07 01:21:57;;;;;;;8.07;3.63;;;;;;;5.83;100.00;98488.09;4944545;28;20050;-67
2024/03/07 01:24:25;;;;;;;9.18;4.30;;;;;;;5.73;100.00;98495.69;4951769;28;20042;-67
2024/03/07 01:26:51;;;;;;;7.43;3.92;;;;;;;5.84;100.00;98497.44;4961149;28;20050;-67
2024/03/07 01:29:16;;;;;;;8.70;4.00;;;;;;;5.61;100.00;98453.59;4967994;28;20039;-67
2024/03/07 01:31:42;;;;;;;9.80;4.18;;;;;;;5.89;100.00;98485.84;4958207;28;20657;-68
2024/03/07 01:34:08;;;;;;;8.18;4.10;;;;;;;5.88;100.00;98491.94;4952231;28;20034;-67
2024/03/07 01:36:36;;;;;;;9.93;3.92;;;;;;;5.81;100.00;98493.34;4972810;28;20037;-66
2024/03/07 01:39:03;;;;;;;8.05;4.05;;;;;;;5.84;100.00;98481.97;4969875;28;20133;-67
2024/03/07 01:41:29;;;;;;;9.02;4.30;;;;;;;5.76;100.00;98492.88;4958701;28;20053;-67
2024/03/07 01:43:54;;;;;;;7.32;3.88;;;;;;;5.80;100.00;98491.69;4959167;28;20432;-68
2024/03/07 01:46:19;;;;;;;6.80;3.42;;;;;;;5.74;100.00;98497.34;4957189;28;20599;-68
2024/03/07 01:48:46;;;;;;;7.97;4.03;;;;;;;5.62;100.00;98488.75;4961614;28;20026;-66
2024/03/07 01:51:12;;;;;;;7.47;4.07;;;;;;;5.58;100.00;98488.19;4957509;28;20663;-66
2024/03/07 01:53:39;;;;;;;8.60;3.92;;;;;;;5.45;100.00;98450.53;4944334;28;20059;-66
2024/03/07 01:56:08;;;;;;;8.75;3.80;;;;;;;5.55;100.00;98459.22;4946107;28;20065;-67
2024/03/07 01:58:34;;;;;;;8.38;3.85;;;;;;;5.67;100.00;98491.00;4953803;28;20030;-68
2024/03/07 02:01:00;;;;;;;7.63;3.53;;;;;;;5.69;100.00;98484.78;4955879;28;20496;-67
2024/03/07 02:03:26;;;;;;;7.22;3.15;;;;;;;5.42;100.00;98449.03;4957861;28;20035;-67
2024/03/07 02:05:51;;;;;;;7.97;3.35;;;;;;;5.74;100.00;98490.41;4961301;28;20050;-67
2024/03/07 02:08:16;;;;;;;7.38;3.60;;;;;;;5.71;100.00;98494.97;4948977;28;20052;-67
2024/03/07 02:10:42;;;;;;;6.35;3.08;;;;;;;5.47;100.00;98480.44;4953086;28;20338;-66
2024/03/07 02:13:08;;;;;;;6.38;3.00;;;;;;;5.46;100.00;98483.13;4952991;28;20202;-67
2024/03/07 02:15:33;;;;;;;8.45;3.45;;;;;;;5.50;100.00;98485.34;4943584;28;20042;-67
2024/03/07 02:18:01;;;;;;;9.32;3.45;;;;;;;5.54;100.00;98479.03;4961183;28;20508;-68
2024/03/07 02:20:27;;;;;;;8.00;3.15;;;;;;;5.22;100.00;98435.06;4942330;28;20034;-67
2024/03/07 02:22:55;;;;;;;6.95;3.55;;;;;;;5.46;100.00;98486.53;4952113;28;20042;-68
2024/03/07 02:25:21;;;;;;;7.43;3.90;;;;;;;5.35;100.00;98484.75;4958771;28;20080;-65
2024/03/07 02:27:46;;;;;;;7.05;3.67;;;;;;;5.43;100.00;98480.78;4961084;28;20864;-66
2024/03/07 02:30:14;;;;;;;7.95;4.32;;;;;;;5.41;100.00;98473.16;4961226;28;20042;-67
2024/03/07 02:32:40;;;;;;;12.07;4.05;;;;;;;5.43;100.00;98476.44;4956614;28;20748;-68
2024/03/07 02:35:08;;;;;;;8.45;3.72;;;;;;;5.02;100.00;98421.09;4954494;28;20042;-67
2024/03/07 02:37:36;;;;;;;8.32;3.88;;;;;;;5.20;100.00;98478.16;4946034;28;20607;-67
2024/03/07 02:40:01;;;;;;;12.48;4.30;;;;;;;5.26;100.00;98482.06;4947991;28;20124;-66
2024/03/07 02:42:26;;;;;;;6.88;3.85;;;;;;;4.90;100.00;98478.66;4959619;28;20112;-67
2024/03/07 02:44:54;;;;;;;8.68;4.13;;;;;;;4.56;100.00;98429.59;4971462;28;20315;-66
2024/03/07 02:47:20;;;;;;;8.82;3.83;;;;;;;5.01;100.00;98470.97;4963424;28;20034;-66
2024/03/07 02:49:47;;;;;;;10.38;4.05;;;;;;;5.10;100.00;98474.63;4976160;28;20555;-67
2024/03/07 02:52:13;;;;;;;8.93;3.90;;;;;;;5.12;100.00;98481.31;5003725;28;20069;-67
2024/03/07 02:54:41;;;;;;;8.43;3.85;;;;;;;5.09;100.00;98478.97;4968308;28;20510;-68
2024/03/07 02:57:10;;;;;;;7.07;3.63;;;;;;;5.06;100.00;98468.06;4981666;28;20734;-67
2024/03/07 02:59:37;;;;;;;6.47;3.35;;;;;;;5.05;100.00;98474.13;4965041;28;20045;-67
2024/03/07 03:02:03;;;;;;;7.65;3.58;;;;;;;5.12;100.00;98476.16;4978181;28;20026;-68
2024/03/07 03:04:30;;;;;;;6.63;2.83;;;;;;;4.88;100.00;98436.75;4977717;28;20120;-67
2024/03/07 03:07:01;;;;;;;8.10;3.25;;;;;;;5.13;100.00;98474.38;4975481;28;20045;-66
2024/03/07 03:09:27;;;;;;;6.60;2.65;;;;;;;5.20;100.00;98479.00;4981111;28;20052;-66
2024/03/07 03:11:53;;;;;;;7.65;3.28;;;;;;;5.30;100.00;98473.16;4980448;28;20514;-67
2024/03/07 03:14:18;;;;;;;7.03;3.20;;;;;;;5.34;100.00;98466.81;4979931;28;20051;-66
2024/03/07 03:16:46;;;;;;;6.70;3.15;;;;;;;5.15;100.00;98439.84;4978528;28;20045;-67
2024/03/07 03:19:12;;;;;;;6.22;3.30;;;;;;;5.39;100.00;98472.47;4978194;28;20044;-67
2024/03/07 03:21:40;;;;;;;8.10;3.60;;;;;;;5.43;100.00;98478.22;4965264;28;20224;-67
2024/03/07 03:24:07;;;;;;;7.55;3.42;;;;;;;5.41;100.00;98477.50;4976288;28;20129;-67
2024/03/07 03:26:32;;;;;;;7.28;3.10;;;;;;;5.39;100.00;98475.84;4991829;28;20053;-68
2024/03/07 03:29:02;;;;;;;7.43;3.50;;;;;;;4.91;100.00;98423.59;4969493;28;20157;-68
2024/03/07 03:31:27;;;;;;;;;;;;;;;5.14;100.00;98473.47;4987105;28;20065;-68
2024/03/07 03:33:53;;;;;;;7.90;3.55;;;;;;;4.49;100.00;98454.97;4967260;28;20036;-66
2024/03/07 03:36:20;;;;;;;8.98;3.60;;;;;;;4.74;100.00;98466.06;4976466;28;20751;-67
2024/03/07 03:38:51;;;;;;;7.60;3.22;;;;;;;4.84;100.00;98461.91;4981081;28;20370;-67
2024/03/07 03:41:18;;;;;;;7.60;3.45;;;;;;;5.01;100.00;98470.97;4966280;28;20164;-68
2024/03/07 03:43:44;;;;;;;6.70;3.10;;;;;;;5.12;100.00;98465.03;4975502;28;20042;-67
2024/03/07 03:46:13;;;;;;;7.60;3.90;;;;;;;5.22;100.00;98473.72;4981023;28;20128;-67
2024/03/07 03:48:43;;;;;;;7.20;3.45;;;;;;;5.25;100.00;98472.66;4988921;28;20034;-67
2024/03/07 03:51:12;;;;;;;7.43;3.33;;;;;;;5.25;100.00;98467.50;4957455;28;20062;-67
2024/03/07 03:53:43;;;;;;;7.57;3.30;;;;;;;5.32;100.00;98476.44;4976175;28;20041;-65
2024/03/07 03:56:11;;;;;;;6.78;2.90;;;;;;;5.11;100.00;98432.44;4964345;28;20037;-68
2024/03/07 03:58:37;;;;;;;6.32;2.63;;;;;;;5.43;100.00;98471.28;4952901;28;20039;-66
2024/03/07 04:01:02;;;;;;;7.00;3.20;;;;;;;5.36;100.00;98468.34;4974093;28;20061;-66
2024/03/07 04:03:30;;;;;;;6.68;3.25;;;;;;;5.45;100.00;98471.16;4981654;28;20030;-66
2024/03/07 04:05:55;;;;;;;8.70;3.20;;;;;;;5.51;100.00;98473.28;4977673;28;20053;-66
2024/03/07 04:08:23;;;;;;;6.22;2.63;;;;;;;5.30;100.00;98434.47;4996097;28;20038;-67
2024/03/07 04:10:51;;;;;;;5.55;2.92;;;;;;;5.58;100.00;98464.13;4979530;28;20046;-66
2024/03/07 04:13:16;;;;;;;7.30;2.80;;;;;;;5.59;100.00;98469.19;4954553;28;20038;-66
2024/03/07 04:15:42;;;;;;;7.20;3.10;;;;;;;5.57;100.00;98447.84;4963996;28;20032;-67
2024/03/07 04:18:07;;;;;;;6.60;3.03;;;;;;;5.66;100.00;98450.66;4969139;28;20034;-66
2024/03/07 04:20:35;;;;;;;5.25;2.70;;;;;;;5.64;100.00;98452.53;4958409;28;20505;-67
2024/03/07 04:23:01;;;;;;;7.60;2.72;;;;;;;5.61;100.00;98450.22;4960685;28;20045;-67
2024/03/07 04:25:34;;;;;;;7.53;2.97;;;;;;;5.46;100.00;98439.28;4963828;28;20045;-67
2024/03/07 04:28:00;;;;;;;6.20;2.72;;;;;;;5.49;100.00;98451.94;4977725;28;20242;-68
2024/03/07 04:30:25;;;;;;;6.47;2.80;;;;;;;5.20;100.00;98405.97;4962355;28;20074;-68
2024/03/07 04:32:51;;;;;;;4.95;2.67;;;;;;;5.50;100.00;98458.75;4982745;28;20810;-68
2024/03/07 04:35:17;;;;;;;5.55;2.28;;;;;;;5.55;100.00;98446.34;4965967;28;20038;-68
2024/03/07 04:37:45;;;;;;;5.00;2.58;;;;;;;5.67;100.00;98457.47;4965948;28;20037;-66
2024/03/07 04:40:16;;;;;;;5.50;3.28;;;;;;;5.65;100.00;98442.09;4987668;28;21264;-67
2024/03/07 04:42:43;;;;;;;6.10;2.92;;;;;;;5.73;100.00;98456.97;5000033;28;20037;-67
2024/03/07 04:45:12;;;;;;;6.05;3.00;;;;;;;5.57;100.00;98444.47;4991123;28;20065;-67
2024/03/07 04:47:44;;;;;;;6.10;2.58;;;;;;;5.55;100.00;98457.47;4955795;28;20038;-67
2024/03/07 04:50:12;;;;;;;6.60;3.05;;;;;;;5.38;100.00;98450.19;4994634;28;20037;-66
2024/03/07 04:52:41;;;;;;;5.72;2.80;;;;;;;5.24;100.00;98456.38;4976114;28;20131;-66
2024/03/07 04:55:10;;;;;;;9.35;2.95;;;;;;;5.42;100.00;98449.03;4966037;28;20112;-67
2024/03/07 04:57:38;;;;;;;6.25;3.00;;;;;;;5.29;100.00;98450.88;4981563;28;20048;-69
2024/03/07 05:00:13;;;;;;;7.10;2.78;;;;;;;5.33;100.00;98452.28;4995803;28;20034;-68
2024/03/07 05:02:40;;;;;;;6.28;2.70;;;;;;;5.38;100.00;98448.44;4980175;28;20048;-67
2024/03/07 05:05:06;;;;;;;6.07;2.63;;;;;;;5.28;100.00;98433.78;4968239;28;20050;-68
2024/03/07 05:07:35;;;;;;;7.65;2.85;;;;;;;5.33;100.00;98453.13;4981858;28;20050;-67
2024/03/07 05:10:02;;;;;;;7.30;2.80;;;;;;;5.39;100.00;98444.09;4982655;28;20464;-67
2024/03/07 05:12:27;;;;;;;7.72;2.88;;;;;;;5.34;100.00;98446.19;4957008;28;20327;-67
2024/03/07 05:14:55;;;;;;;7.03;2.65;;;;;;;5.18;100.00;98449.94;4994664;28;20042;-68
2024/03/07 05:17:22;;;;;;;6.70;3.00;;;;;;;5.23;100.00;98448.75;4980686;28;20044;-67
2024/03/07 05:19:49;;;;;;;7.70;3.30;;;;;;;5.25;100.00;98445.13;4978330;28;20042;-66
2024/03/07 05:22:24;;;;;;;5.45;2.72;;;;;;;4.77;100.00;98386.00;4978878;28;20029;-67
2024/03/07 05:24:50;;;;;;;6.18;2.97;;;;;;;4.72;100.00;98376.03;4978477;28;20053;-67
2024/03/07 05:27:15;;;;;;;5.80;2.90;;;;;;;5.09;100.00;98435.16;4988516;28;20041;-67
2024/03/07 05:29:41;;;;;;;5.88;3.13;;;;;;;5.07;100.00;98436.19;4964035;28;20041;-68
2024/03/07 05:32:26;;;;;;;6.18;3.10;;;;;;;5.11;100.00;98438.44;4979919;28;20072;-68
2024/03/07 05:34:53;;;;;;;6.22;3.05;;;;;;;4.91;100.00;98393.53;4968115;28;20044;-67
2024/03/07 05:37:21;;;;;;;7.32;2.95;;;;;;;5.24;100.00;98430.59;4963614;28;20042;-66
2024/03/07 05:39:49;;;;;;;6.85;2.90;;;;;;;5.26;100.00;98433.06;4964016;28;20036;-66
2024/03/07 05:42:15;;;;;;;5.07;2.60;;;;;;;5.16;100.00;98433.72;4980163;28;20061;-67
2024/03/07 05:44:47;;;;;;;5.97;2.63;;;;;;;5.19;100.00;98441.25;4964358;28;20061;-67
2024/03/07 05:47:16;;;;;;;6.43;3.15;;;;;;;5.05;100.00;98438.88;5000170;28;20116;-66
2024/03/07 05:49:41;;;;;;;6.53;3.03;;;;;;;5.00;100.00;98441.81;4958551;28;20436;-67
2024/03/07 05:52:07;;;;;;;5.60;2.95;;;;;;;5.06;100.00;98426.81;4973890;28;20104;-67
2024/03/07 05:54:32;;;;;;;6.07;3.15;;;;;;;5.13;100.00;98433.13;4976245;28;20141;-67
2024/03/07 05:56:58;;;;;;;8.18;3.13;;;;;;;4.86;100.00;98398.19;4980466;28;21653;-67
2024/03/07 05:59:23;;;;;;;7.88;2.58;;;;;;;5.24;100.00;98440.91;4983096;28;20324;-68
2024/03/07 06:01:52;;;;;;;6.68;3.03;;;;;;;5.22;100.00;98427.31;4977602;28;20548;-67
2024/03/07 06:04:17;;;;;;;6.15;2.80;;;;;;;5.37;100.00;98451.94;4983576;28;20038;-68
2024/03/07 06:06:43;;;;;;;6.43;2.80;;;;;;;5.30;100.00;98444.78;4969258;28;20080;-67
2024/03/07 06:09:13;;;;;;;6.43;3.08;;;;;;;5.19;100.00;98451.56;4960439;28;20129;-66
2024/03/07 06:11:42;;;;;;;6.07;3.22;;;;;;;5.23;100.00;98457.31;4972876;28;20674;-68
2024/03/07 06:14:13;;;;;;;5.53;2.60;;;;;;;5.30;100.00;98449.94;4972064;28;20072;-67
2024/03/07 06:16:39;;;;;;;8.23;2.70;;;;;;;5.41;100.00;98452.53;4962468;28;20773;-67
2024/03/07 06:19:09;;;;;;;5.18;2.28;;;;;;;5.59;100.00;98460.63;4968909;28;20093;-66
2024/03/07 06:21:40;;;;;;;5.03;2.63;;;;;;;5.47;100.00;98466.72;4971605;28;20042;-67
2024/03/07 06:24:08;;;;;;;5.10;2.70;;;;;;;5.34;100.00;98459.09;4956437;28;20089;-67
2024/03/07 06:26:45;;;;;;;6.50;2.78;;;;;;;5.42;100.00;98463.66;4977400;28;20038;-67
2024/03/07 06:29:13;;;;;;;5.82;3.10;;;;;;;5.35;100.00;98458.16;4961511;28;20894;-67
2024/03/07 06:31:43;;;;;;;5.13;2.57;;;;;;;5.34;100.00;98469.41;4960665;28;20045;-67
2024/03/07 06:34:08;;;;;;;6.18;3.25;;;;;;;5.32;100.00;98468.69;4974676;28;20040;-68
2024/03/07 06:36:34;;;;;;;5.80;2.88;;;;;;;5.34;100.00;98470.22;4977711;28;20680;-66
2024/03/07 06:38:59;;;;;;;7.15;2.53;;;;;;;5.39;100.00;98462.97;4960024;28;20109;-67
2024/03/07 06:41:25;;;;;;;5.65;2.83;;;;;;;5.46;100.00;98460.75;4969332;28;20047;-67
2024/03/07 06:43:55;;;;;;;5.30;2.75;;;;;;;5.40;100.00;98471.50;4955078;28;20116;-66
2024/03/07 06:46:20;;;;;;;;;;;;;;;5.36;100.00;98473.50;4966600;28;20451;-67
2024/03/07 06:48:48;;;;;;;5.80;2.42;;;;;;;5.31;100.00;98467.03;4965292;28;19917;-67
2024/03/07 06:51:17;;;;;;;4.78;2.63;;;;;;;5.32;100.00;98476.44;4958399;28;20442;-67
2024/03/07 06:53:46;;;;;;;6.05;2.67;;;;;;;5.27;100.00;98461.28;4981581;28;20857;-67
2024/03/07 06:56:12;;;;;;;5.03;2.60;;;;;;;5.34;100.00;98474.56;4978263;28;20026;-66
2024/03/07 06:58:42;;;;;;;5.90;3.10;;;;;;;5.35;100.00;98471.06;4994175;28;20096;-66
2024/03/07 07:01:12;;;;;;;4.85;2.53;;;;;;;5.46;100.00;98470.22;4957804;28;20129;-67
2024/03/07 07:03:37;;;;;;;6.90;2.63;;;;;;;5.41;100.00;98482.66;4961235;28;20614;-67
2024/03/07 07:06:06;;;;;;;5.65;2.42;;;;;;;5.46;100.00;98483.97;4973646;28;20148;-67
2024/03/07 07:08:34;;;;;;;6.32;2.75;;;;;;;5.26;100.00;98436.47;4954640;28;20057;-67
2024/03/07 07:11:03;;;;;;;7.35;2.92;;;;;;;5.45;100.00;98461.66;4978063;28;20489;-67
2024/03/07 07:13:31;;;;;;;7.13;2.80;;;;;;;5.49;100.00;98472.56;4958529;28;20053;-67
2024/03/07 07:15:57;;;;;;;5.82;2.65;;;;;;;5.42;100.00;98479.97;4959951;28;20053;-67
2024/03/07 07:18:23;;;;;;;5.38;2.58;;;;;;;5.48;100.00;98465.78;4962665;28;20029;-67
2024/03/07 07:20:51;;;;;;;4.65;2.53;;;;;;;5.55;100.00;98478.09;4975882;28;20049;-68
2024/03/07 07:23:17;;;;;;;5.50;2.58;;;;;;;5.44;100.00;98461.78;4975385;28;20049;-67
2024/03/07 07:25:44;;;;;;;5.28;2.45;;;;;;;5.39;100.00;98467.31;4982519;28;20050;-66
2024/03/07 07:28:11;;;;;;;5.13;2.70;;;;;;;5.27;100.00;98478.53;4982831;28;20038;-66
2024/03/07 07:30:39;;;;;;;5.70;2.78;;;;;;;5.39;100.00;98473.28;4982416;28;20048;-67
2024/03/07 07:33:07;;;;;;;5.38;2.88;;;;;;;4.92;100.00;98418.34;4990036;28;20085;-67
2024/03/07 07:35:34;;;;;;;7.65;2.80;;;;;;;5.34;100.00;98477.13;4980596;28;20042;-66
2024/03/07 07:38:03;;;;;;;7.00;2.40;;;;;;;5.32;100.00;98479.81;4978036;28;20479;-68
2024/03/07 07:40:31;;;;;;;6.05;2.45;;;;;;;5.33;100.00;98478.91;4974579;28;20050;-67
2024/03/07 07:42:58;;;;;;;5.47;2.50;;;;;;;5.29;100.00;98472.31;4976646;28;20858;-66
2024/03/07 07:45:24;;;;;;;6.30;2.53;;;;;;;5.37;100.00;98476.91;4976659;28;20141;-67
2024/03/07 07:47:51;;;;;;;5.50;2.08;;;;;;;5.38;100.00;98465.66;4964371;28;20046;-66
2024/03/07 07:50:18;;;;;;;7.55;2.55;;;;;;;5.42;100.00;98471.41;4978697;28;20038;-67
2024/03/07 07:52:50;;;;;;;4.63;2.20;;;;;;;5.52;100.00;98460.28;4983311;28;20037;-66
2024/03/07 07:55:34;;;;;;;5.10;2.08;;;;;;;5.71;100.00;98458.88;4989959;28;20116;-67
2024/03/07 07:58:05;;;;;;;5.90;2.17;;;;;;;5.76;100.00;98461.91;4959404;28;20040;-66
2024/03/07 08:00:31;;;;;;;4.90;1.98;;;;;;;5.70;100.00;98455.47;4986570;28;20103;-67
2024/03/07 08:03:03;;;;;;;5.35;2.13;;;;;;;5.51;100.00;98411.38;4959341;28;20042;-67
2024/03/07 08:05:33;;;;;;;5.65;2.20;;;;;;;5.80;100.00;98462.50;4971604;28;20105;-67
2024/03/07 08:08:02;;;;;;;5.35;2.72;;;;;;;5.50;100.00;98409.75;4983862;28;20030;-67
2024/03/07 08:10:31;;;;;;;5.18;2.42;;;;;;;5.85;100.00;98458.63;4980184;28;20075;-67
2024/03/07 08:13:03;;;;;;;5.40;2.50;;;;;;;5.91;100.00;98458.19;4963464;28;20156;-66
2024/03/07 08:15:30;;;;;;;5.53;2.30;;;;;;;6.00;100.00;98466.16;4962732;28;20065;-68
2024/03/07 08:17:56;;;;;;;6.13;2.58;;;;;;;6.04;100.00;98465.81;4981607;28;20881;-66
2024/03/07 08:20:27;;;;;;;5.15;2.38;;;;;;;6.03;100.00;98458.19;4967661;28;20108;-67
2024/03/07 08:22:56;;;;;;;5.85;2.65;;;;;;;6.10;100.00;98464.50;4977533;28;20117;-67
2024/03/07 08:25:23;;;;;;;5.97;2.58;;;;;;;6.09;100.00;98470.59;4969459;28;20043;-67
2024/03/07 08:27:52;;;;;;;5.35;2.42;;;;;;;6.14;100.00;98468.50;4988737;28;20058;-66
2024/03/07 08:30:18;;;;;;;5.68;2.53;;;;;;;6.24;100.00;98473.75;4969594;28;20061;-66
2024/03/07 08:32:51;;;;;;;5.25;2.63;;;;;;;6.14;100.00;98450.41;4950673;28;20034;-67
2024/03/07 08:35:17;;;;;;;5.43;2.60;;;;;;;6.25;100.00;98471.03;4980314;28;20733;-66
2024/03/07 08:37:44;;;;;;;5.28;2.38;;;;;;;6.29;100.00;98472.44;4969952;28;20040;-65
2024/03/07 08:40:11;;;;;;;5.50;2.58;;;;;;;6.28;100.00;98468.22;4970757;28;20081;-66
2024/03/07 08:42:37;;;;;;;5.38;2.70;;;;;;;6.10;100.00;98430.94;4967064;28;20140;-65
2024/03/07 08:45:06;;;;;;;6.43;2.75;;;;;;;6.38;100.00;98467.50;4953960;28;20030;-67
2024/03/07 08:47:41;;;;;;;6.13;3.25;;;;;;;6.43;100.00;98473.13;4955388;28;20046;-66
2024/03/07 08:50:08;;;;;;;5.80;2.75;;;;;;;6.33;100.00;98471.28;4967527;28;20046;-66
2024/03/07 08:52:36;;;;;;;5.93;2.63;;;;;;;6.44;100.00;98464.41;4983842;28;20038;-66
2024/03/07 08:55:01;;;;;;;6.07;2.88;;;;;;;6.45;100.00;98468.66;4956217;28;20144;-66
2024/03/07 08:57:26;;;;;;;6.40;2.90;;;;;;;6.42;100.00;98461.13;4964929;28;20045;-66
2024/03/07 08:59:52;;;;;;;6.43;2.75;;;;;;;6.58;100.00;98466.72;4955275;28;20046;-66
2024/03/07 09:02:17;;;;;;;6.20;2.60;;;;;;;6.48;100.00;98433.06;4952370;28;20169;-65
2024/03/07 09:04:43;;;;;;;6.57;2.67;;;;;;;6.74;100.00;98471.50;4949856;28;20053;-67
2024/03/07 09:07:08;;;;;;;6.38;2.65;;;;;;;6.80;100.00;98467.59;4983607;28;20587;-66
2024/03/07 09:09:34;;;;;;;7.63;2.80;;;;;;;6.93;100.00;98473.41;4964393;28;20116;-67
2024/03/07 09:12:06;;;;;;;5.13;2.38;;;;;;;6.98;100.00;98458.34;4974265;28;20042;-67
2024/03/07 09:14:31;;;;;;;6.88;2.50;;;;;;;7.08;100.00;98464.41;4959488;28;20029;-64
2024/03/07 09:16:59;;;;;;;5.68;2.20;;;;;;;7.10;100.00;98462.50;4951161;28;20057;-66
2024/03/07 09:19:27;;;;;;;4.90;2.00;;;;;;;7.21;100.00;98458.19;4968086;28;20113;-66
2024/03/07 09:21:53;;;;;;;4.88;2.00;;;;;;;7.34;100.00;98468.34;4969989;28;20090;-65
2024/03/07 09:24:21;;;;;;;4.72;2.13;;;;;;;7.48;100.00;98465.44;4981318;28;20619;-67
2024/03/07 09:26:48;;;;;;;6.68;2.00;;;;;;;7.60;100.00;98466.19;4966856;28;20033;-66
2024/03/07 09:29:14;;;;;;;4.53;1.88;;;;;;;7.70;100.00;98459.25;4971587;28;20033;-65
2024/03/07 09:31:42;;;;;;;4.97;1.88;;;;;;;7.78;100.00;98467.22;4960434;28;20039;-65
2024/03/07 09:34:12;;;;;;;4.78;2.00;;;;;;;7.60;100.00;98410.06;4969816;28;20037;-64
2024/03/07 09:36:38;;;;;;;8.63;3.88;;;;;;;7.73;100.00;98433.13;4968911;28;20042;-65
2024/03/07 09:39:04;;;;;;;14.98;6.13;;;;;;;8.05;100.00;98473.56;4955393;28;20104;-67
2024/03/07 09:41:32;;;;;;;10.45;3.72;;;;;;;8.03;100.00;98462.50;4951098;28;20062;-65
2024/03/07 09:43:58;;;;;;;5.20;2.15;;;;;;;8.09;100.00;98451.63;4970790;28;20096;-66
2024/03/07 09:46:24;;;;;;;4.93;1.83;;;;;;;8.23;100.00;98461.63;4968057;28;20042;-66
2024/03/07 09:48:55;;;;;;;3.88;1.42;;;;;;;8.30;100.00;98463.66;4980332;28;20100;-65
2024/03/07 09:51:27;;;;;;;3.47;1.30;;;;;;;8.26;98.28;98463.94;4970910;28;20061;-67
2024/03/07 09:53:53;;;;;;;4.38;1.20;;;;;;;8.37;99.28;98468.19;4980130;28;20077;-66
2024/03/07 09:56:25;;;;;;;3.90;1.38;;;;;;;8.38;96.27;98463.84;4979965;28;20046;-66
2024/03/07 09:58:51;;;;;;;4.68;1.60;;;;;;;8.49;96.66;98465.50;4966498;28;20030;-65
2024/03/07 10:01:21;;;;;;;6.38;2.28;;;;;;;8.56;97.80;98467.44;4973899;28;20154;-66
2024/03/07 10:03:50;;;;;;;5.05;2.17;;;;;;;8.59;96.30;98461.16;4956440;28;20042;-65
2024/03/07 10:06:18;;;;;;;7.03;2.15;;;;;;;8.65;95.68;98474.38;4973014;28;20053;-65
2024/03/07 10:08:47;;;;;;;5.80;2.20;;;;;;;8.71;95.84;98454.88;4949058;28;20041;-64
2024/03/07 10:11:15;;;;;;;5.05;2.40;;;;;;;8.53;94.72;98426.22;4970711;28;20046;-66
2024/03/07 10:13:43;;;;;;;6.03;1.83;;;;;;;8.72;98.85;98455.69;4972468;28;20038;-64
2024/03/07 10:16:11;;;;;;;4.30;1.67;;;;;;;8.47;98.09;98416.41;4972585;28;21277;-66
2024/03/07 10:18:43;;;;;;;4.22;1.48;;;;;;;8.72;96.84;98451.31;4964523;28;20030;-65
2024/03/07 10:21:11;;;;;;;3.83;1.50;;;;;;;8.77;97.31;98449.13;4970334;28;20526;-66
2024/03/07 10:23:36;;;;;;;3.63;1.48;;;;;;;8.53;93.35;98412.47;4949527;28;20728;-65
2024/03/07 10:26:07;;;;;;;5.07;1.42;;;;;;;8.78;92.94;98439.56;4952875;28;20045;-65
2024/03/07 10:28:33;;;;;;;5.28;1.60;;;;;;;8.91;95.37;98452.25;4983154;28;20488;-65
2024/03/07 10:31:00;;;;;;;4.50;1.88;;;;;;;8.59;93.44;98402.34;4971691;28;20118;-65
2024/03/07 10:33:32;;;;;;;4.55;1.30;;;;;;;8.95;95.19;98446.66;4982195;28;20034;-65
2024/03/07 10:36:01;;;;;;;5.55;1.65;;;;;;;8.68;91.37;98402.50;4979673;28;20045;-66
2024/03/07 10:38:27;;;;;;;3.70;1.20;;;;;;;9.11;92.53;98442.69;4963683;28;20382;-67
2024/03/07 10:40:56;;;;;;;4.15;1.35;;;;;;;8.97;91.01;98402.44;4960885;28;20084;-65
2024/03/07 10:43:22;;;;;;;3.60;1.27;;;;;;;9.37;89.15;98443.72;4968850;28;20044;-65
2024/03/07 10:45:52;;;;;;;4.28;1.42;;;;;;;9.48;89.05;98427.16;4963698;28;20042;-66
2024/03/07 10:48:19;;;;;;;3.50;1.35;;;;;;;9.52;88.93;98422.50;4955253;28;20037;-64
2024/03/07 10:50:53;;;;;;;3.97;1.30;;;;;;;9.58;86.51;98429.72;4964440;28;20056;-64
2024/03/07 10:53:33;;;;;;;3.42;1.40;;;;;;;9.63;90.30;98430.09;4983114;28;20030;-66
2024/03/07 10:56:06;;;;;;;5.43;1.40;;;;;;;9.60;93.82;98432.97;4983106;28;20120;-67
2024/03/07 10:58:42;;;;;;;4.03;1.60;;;;;;;9.47;88.98;98378.78;4977536;28;20036;-64
2024/03/07 11:01:11;;;;;;;4.00;1.33;;;;;;;9.78;88.96;98417.47;4964246;28;20038;-66
2024/03/07 11:03:39;;;;;;;4.00;1.38;;;;;;;9.95;91.27;98427.09;4980295;28;20116;-66
2024/03/07 11:06:06;;;;;;;3.85;1.30;;;;;;;9.98;88.05;98384.41;4971281;28;20038;-66
2024/03/07 11:08:37;;;;;;;3.90;1.40;;;;;;;10.26;88.87;98418.13;4968004;28;20088;-65
2024/03/07 11:11:03;;;;;;;4.65;1.70;;;;;;;10.43;89.14;98409.56;4980062;28;20042;-64
2024/03/07 11:13:30;;;;;;;4.50;1.52;;;;;;;10.73;87.54;98413.59;4964749;28;20068;-65
2024/03/07 11:15:58;;;;;;;5.45;1.80;;;;;;;10.77;86.87;98403.69;4962800;28;20045;-66
2024/03/07 11:18:29;;;;;;;5.97;1.70;;;;;;;11.01;86.20;98408.25;4982115;28;20052;-65
2024/03/07 11:20:57;;;;;;;4.15;1.73;;;;;;;10.76;86.22;98357.84;4956151;28;20044;-65
2024/03/07 11:23:28;;;;;;;3.92;1.50;;;;;;;11.07;85.92;98389.41;4966313;28;20129;-66
2024/03/07 11:25:55;;;;;;;4.25;1.67;;;;;;;11.22;86.19;98394.06;4980393;28;20570;-64
2024/03/07 11:28:29;;;;;;;4.40;1.75;;;;;;;11.25;86.32;98389.38;4969616;28;20030;-64
2024/03/07 11:30:54;;;;;;;4.75;2.15;;;;;;;11.08;84.98;98343.41;4959740;28;20035;-65
2024/03/07 11:33:20;;;;;;;4.97;1.98;;;;;;;11.39;84.72;98374.97;4964439;28;20409;-64
2024/03/07 11:35:49;;;;;;;5.63;1.98;;;;;;;11.35;83.95;98365.81;4962138;28;20422;-65